sensor_id;sensor_type;location;lat;lon;timestamp;temperature;humidity
21861;DHT22;11095;48.066;8.540;2023-04-24T00:00:03;9.40;99.90
21861;DHT22;11095;48.066;8.540;2023-04-24T00:02:32;9.40;99.90
21861;DHT22;11095;48.066;8.540;2023-04-24T00:04:59;9.40;99.90
21861;DHT22;11095;48.066;8.540;2023-04-24T00:07:27;9.40;99.90
21861;DHT22;11095;48.066;8.540;2023-04-24T00:09:53;9.40;99.90
21861;DHT22;11095;48.066;8.540;2023-04-24T00:12:18;9.40;99.90
21861;DHT22;11095;48.066;8.540;2023-04-24T00:14:44;9.40;99.90
21861;DHT22;11095;48.066;8.540;2023-04-24T00:17:10;9.40;99.90
21861;DHT22;11095;48.066;8.540;2023-04-24T00:19:35;9.30;99.90
21861;DHT22;11095;48.066;8.540;2023-04-24T00:22:02;9.30;99.90
21861;DHT22;11095;48.066;8.540;2023-04-24T00:24:28;9.30;99.90
21861;DHT22;11095;48.066;8.540;2023-04-24T00:26:53;9.30;99.90
21861;DHT22;11095;48.066;8.540;2023-04-24T00:29:19;9.20;99.90
21861;DHT22;11095;48.066;8.540;2023-04-24T00:31:45;9.20;99.90
21861;DHT22;11095;48.066;8.540;2023-04-24T00:34:11;9.20;99.90
21861;DHT22;11095;48.066;8.540;2023-04-24T00:36:37;9.20;99.90
21861;DHT22;11095;48.066;8.540;2023-04-24T00:39:03;9.20;99.90
21861;DHT22;11095;48.066;8.540;2023-04-24T00:41:29;9.20;99.90
21861;DHT22;11095;48.066;8.540;2023-04-24T00:43:55;9.20;99.90
21861;DHT22;11095;48.066;8.540;2023-04-24T00:46:21;9.20;99.90
21861;DHT22;11095;48.066;8.540;2023-04-24T00:48:47;9.20;99.90
21861;DHT22;11095;48.066;8.540;2023-04-24T00:51:13;9.20;99.90
21861;DHT22;11095;48.066;8.540;2023-04-24T00:53:38;9.20;99.90
21861;DHT22;11095;48.066;8.540;2023-04-24T00:56:04;9.20;99.90
21861;DHT22;11095;48.066;8.540;2023-04-24T00:58:31;9.10;99.90
21861;DHT22;11095;48.066;8.540;2023-04-24T01:00:57;9.20;99.90
21861;DHT22;11095;48.066;8.540;2023-04-24T01:03:26;9.10;99.90
21861;DHT22;11095;48.066;8.540;2023-04-24T01:05:54;9.20;99.90
21861;DHT22;11095;48.066;8.540;2023-04-24T01:08:22;9.20;99.90
21861;DHT22;11095;48.066;8.540;2023-04-24T01:10:53;9.20;99.90
21861;DHT22;11095;48.066;8.540;2023-04-24T01:13:19;9.20;99.90
21861;DHT22;11095;48.066;8.540;2023-04-24T01:15:45;9.10;99.90
21861;DHT22;11095;48.066;8.540;2023-04-24T01:18:11;9.10;99.90
21861;DHT22;11095;48.066;8.540;2023-04-24T01:20:41;9.10;99.90
21861;DHT22;11095;48.066;8.540;2023-04-24T01:23:08;9.00;99.90
21861;DHT22;11095;48.066;8.540;2023-04-24T01:25:34;9.00;99.90
21861;DHT22;11095;48.066;8.540;2023-04-24T01:28:00;8.90;99.90
21861;DHT22;11095;48.066;8.540;2023-04-24T01:30:26;8.90;99.90
21861;DHT22;11095;48.066;8.540;2023-04-24T01:32:53;8.90;99.90
21861;DHT22;11095;48.066;8.540;2023-04-24T01:35:19;8.80;99.90
21861;DHT22;11095;48.066;8.540;2023-04-24T01:37:45;8.80;99.90
21861;DHT22;11095;48.066;8.540;2023-04-24T01:40:11;8.90;99.90
21861;DHT22;11095;48.066;8.540;2023-04-24T01:42:36;8.80;99.90
21861;DHT22;11095;48.066;8.540;2023-04-24T01:45:04;8.80;99.90
21861;DHT22;11095;48.066;8.540;2023-04-24T01:47:31;8.80;99.90
21861;DHT22;11095;48.066;8.540;2023-04-24T01:49:57;8.70;99.90
21861;DHT22;11095;48.066;8.540;2023-04-24T01:52:23;8.70;99.90
21861;DHT22;11095;48.066;8.540;2023-04-24T01:54:49;8.60;99.90
21861;DHT22;11095;48.066;8.540;2023-04-24T01:57:16;8.60;99.90
21861;DHT22;11095;48.066;8.540;2023-04-24T01:59:42;8.50;99.90
21861;DHT22;11095;48.066;8.540;2023-04-24T02:02:07;8.50;99.90
21861;DHT22;11095;48.066;8.540;2023-04-24T02:04:33;8.40;99.90
21861;DHT22;11095;48.066;8.540;2023-04-24T02:06:59;8.40;99.90
21861;DHT22;11095;48.066;8.540;2023-04-24T02:09:24;8.40;99.90
21861;DHT22;11095;48.066;8.540;2023-04-24T02:11:50;8.40;99.90
21861;DHT22;11095;48.066;8.540;2023-04-24T02:14:16;8.40;99.90
21861;DHT22;11095;48.066;8.540;2023-04-24T02:16:41;8.40;99.90
21861;DHT22;11095;48.066;8.540;2023-04-24T02:19:07;8.40;99.90
21861;DHT22;11095;48.066;8.540;2023-04-24T02:21:33;8.30;99.90
21861;DHT22;11095;48.066;8.540;2023-04-24T02:24:00;8.30;99.90
21861;DHT22;11095;48.066;8.540;2023-04-24T02:26:25;8.30;99.90
21861;DHT22;11095;48.066;8.540;2023-04-24T02:28:51;8.30;99.90
21861;DHT22;11095;48.066;8.540;2023-04-24T02:31:17;8.30;99.90
21861;DHT22;11095;48.066;8.540;2023-04-24T02:33:42;8.30;99.90
21861;DHT22;11095;48.066;8.540;2023-04-24T02:36:08;8.30;99.90
21861;DHT22;11095;48.066;8.540;2023-04-24T02:38:34;8.30;99.90
21861;DHT22;11095;48.066;8.540;2023-04-24T02:41:00;8.30;99.90
21861;DHT22;11095;48.066;8.540;2023-04-24T02:43:27;8.30;99.90
21861;DHT22;11095;48.066;8.540;2023-04-24T02:45:53;8.30;99.90
21861;DHT22;11095;48.066;8.540;2023-04-24T02:48:18;8.30;99.90
21861;DHT22;11095;48.066;8.540;2023-04-24T02:50:46;8.20;99.90
21861;DHT22;11095;48.066;8.540;2023-04-24T02:53:11;8.20;99.90
21861;DHT22;11095;48.066;8.540;2023-04-24T02:55:37;8.20;99.90
21861;DHT22;11095;48.066;8.540;2023-04-24T02:58:03;8.10;99.90
21861;DHT22;11095;48.066;8.540;2023-04-24T03:00:28;8.10;99.90
21861;DHT22;11095;48.066;8.540;2023-04-24T03:02:54;8.10;99.90
21861;DHT22;11095;48.066;8.540;2023-04-24T03:05:20;8.10;99.90
21861;DHT22;11095;48.066;8.540;2023-04-24T03:07:45;8.10;99.90
21861;DHT22;11095;48.066;8.540;2023-04-24T03:10:11;8.10;99.90
21861;DHT22;11095;48.066;8.540;2023-04-24T03:12:37;8.10;99.90
21861;DHT22;11095;48.066;8.540;2023-04-24T03:15:03;8.10;99.90
21861;DHT22;11095;48.066;8.540;2023-04-24T03:17:28;8.10;99.90
21861;DHT22;11095;48.066;8.540;2023-04-24T03:19:54;8.10;99.90
21861;DHT22;11095;48.066;8.540;2023-04-24T03:22:19;8.10;99.90
21861;DHT22;11095;48.066;8.540;2023-04-24T03:24:45;8.10;99.90
21861;DHT22;11095;48.066;8.540;2023-04-24T03:27:11;8.10;99.90
21861;DHT22;11095;48.066;8.540;2023-04-24T03:29:36;8.10;99.90
21861;DHT22;11095;48.066;8.540;2023-04-24T03:32:02;8.00;99.90
21861;DHT22;11095;48.066;8.540;2023-04-24T03:34:28;8.00;99.90
21861;DHT22;11095;48.066;8.540;2023-04-24T03:36:53;8.00;99.90
21861;DHT22;11095;48.066;8.540;2023-04-24T03:39:19;8.00;99.90
21861;DHT22;11095;48.066;8.540;2023-04-24T03:41:45;8.00;99.90
21861;DHT22;11095;48.066;8.540;2023-04-24T03:44:10;8.00;99.90
21861;DHT22;11095;48.066;8.540;2023-04-24T03:46:36;7.90;99.90
21861;DHT22;11095;48.066;8.540;2023-04-24T03:49:01;7.90;99.90
21861;DHT22;11095;48.066;8.540;2023-04-24T03:51:27;7.90;99.90
21861;DHT22;11095;48.066;8.540;2023-04-24T03:53:53;7.90;99.90
21861;DHT22;11095;48.066;8.540;2023-04-24T03:56:19;7.90;99.90
21861;DHT22;11095;48.066;8.540;2023-04-24T03:58:45;7.80;99.90
21861;DHT22;11095;48.066;8.540;2023-04-24T04:01:11;7.80;99.90
21861;DHT22;11095;48.066;8.540;2023-04-24T04:03:37;7.80;99.90
21861;DHT22;11095;48.066;8.540;2023-04-24T04:06:03;7.80;99.90
21861;DHT22;11095;48.066;8.540;2023-04-24T04:08:29;7.80;99.90
21861;DHT22;11095;48.066;8.540;2023-04-24T04:10:54;7.80;99.90
21861;DHT22;11095;48.066;8.540;2023-04-24T04:13:20;7.80;99.90
21861;DHT22;11095;48.066;8.540;2023-04-24T04:15:46;7.80;99.90
21861;DHT22;11095;48.066;8.540;2023-04-24T04:18:11;7.70;99.90
21861;DHT22;11095;48.066;8.540;2023-04-24T04:20:37;7.70;99.90
21861;DHT22;11095;48.066;8.540;2023-04-24T04:23:03;7.60;99.90
21861;DHT22;11095;48.066;8.540;2023-04-24T04:25:28;7.60;99.90
21861;DHT22;11095;48.066;8.540;2023-04-24T04:27:54;7.50;99.90
21861;DHT22;11095;48.066;8.540;2023-04-24T04:30:20;7.50;99.90
21861;DHT22;11095;48.066;8.540;2023-04-24T04:32:46;7.50;99.90
21861;DHT22;11095;48.066;8.540;2023-04-24T04:35:12;7.60;99.90
21861;DHT22;11095;48.066;8.540;2023-04-24T04:37:38;7.60;99.90
21861;DHT22;11095;48.066;8.540;2023-04-24T04:40:04;7.60;99.90
21861;DHT22;11095;48.066;8.540;2023-04-24T04:42:33;7.60;99.90
21861;DHT22;11095;48.066;8.540;2023-04-24T04:45:01;7.70;99.90
21861;DHT22;11095;48.066;8.540;2023-04-24T04:47:27;7.70;99.90
21861;DHT22;11095;48.066;8.540;2023-04-24T04:49:54;7.70;99.90
21861;DHT22;11095;48.066;8.540;2023-04-24T04:52:20;7.70;99.90
21861;DHT22;11095;48.066;8.540;2023-04-24T04:54:50;7.70;99.90
21861;DHT22;11095;48.066;8.540;2023-04-24T04:57:15;7.70;99.90
21861;DHT22;11095;48.066;8.540;2023-04-24T04:59:41;7.80;99.90
21861;DHT22;11095;48.066;8.540;2023-04-24T05:02:07;7.80;99.90
21861;DHT22;11095;48.066;8.540;2023-04-24T05:04:33;7.60;99.90
21861;DHT22;11095;48.066;8.540;2023-04-24T05:06:58;7.50;99.90
21861;DHT22;11095;48.066;8.540;2023-04-24T05:09:24;7.40;99.90
21861;DHT22;11095;48.066;8.540;2023-04-24T05:11:52;7.30;99.90
21861;DHT22;11095;48.066;8.540;2023-04-24T05:14:18;7.30;99.90
21861;DHT22;11095;48.066;8.540;2023-04-24T05:16:44;7.30;99.90
21861;DHT22;11095;48.066;8.540;2023-04-24T05:19:10;7.40;99.90
21861;DHT22;11095;48.066;8.540;2023-04-24T05:21:37;7.40;99.90
21861;DHT22;11095;48.066;8.540;2023-04-24T05:24:05;7.40;99.90
21861;DHT22;11095;48.066;8.540;2023-04-24T05:26:30;7.50;99.90
21861;DHT22;11095;48.066;8.540;2023-04-24T05:28:56;7.60;99.90
21861;DHT22;11095;48.066;8.540;2023-04-24T05:31:22;7.60;99.90
21861;DHT22;11095;48.066;8.540;2023-04-24T05:33:47;7.70;99.90
21861;DHT22;11095;48.066;8.540;2023-04-24T05:36:13;7.80;99.90
21861;DHT22;11095;48.066;8.540;2023-04-24T05:38:39;7.90;99.90
21861;DHT22;11095;48.066;8.540;2023-04-24T05:41:05;8.00;99.90
21861;DHT22;11095;48.066;8.540;2023-04-24T05:43:33;8.10;99.90
21861;DHT22;11095;48.066;8.540;2023-04-24T05:45:59;8.20;99.90
21861;DHT22;11095;48.066;8.540;2023-04-24T05:48:24;8.30;99.90
21861;DHT22;11095;48.066;8.540;2023-04-24T05:50:50;8.30;99.90
21861;DHT22;11095;48.066;8.540;2023-04-24T05:53:18;8.60;99.90
21861;DHT22;11095;48.066;8.540;2023-04-24T05:55:44;9.30;99.90
21861;DHT22;11095;48.066;8.540;2023-04-24T05:58:12;10.00;99.90
21861;DHT22;11095;48.066;8.540;2023-04-24T06:00:38;10.00;99.90
21861;DHT22;11095;48.066;8.540;2023-04-24T06:03:07;9.80;99.90
21861;DHT22;11095;48.066;8.540;2023-04-24T06:05:33;9.80;99.90
21861;DHT22;11095;48.066;8.540;2023-04-24T06:08:00;9.80;99.90
21861;DHT22;11095;48.066;8.540;2023-04-24T06:10:25;10.00;99.90
21861;DHT22;11095;48.066;8.540;2023-04-24T06:12:51;11.10;99.90
21861;DHT22;11095;48.066;8.540;2023-04-24T06:15:17;11.60;99.90
21861;DHT22;11095;48.066;8.540;2023-04-24T06:17:42;11.80;99.90
21861;DHT22;11095;48.066;8.540;2023-04-24T06:20:08;11.80;99.90
21861;DHT22;11095;48.066;8.540;2023-04-24T06:22:36;11.60;99.90
21861;DHT22;11095;48.066;8.540;2023-04-24T06:25:01;11.00;99.90
21861;DHT22;11095;48.066;8.540;2023-04-24T06:27:27;10.50;99.90
21861;DHT22;11095;48.066;8.540;2023-04-24T06:29:53;10.10;99.90
21861;DHT22;11095;48.066;8.540;2023-04-24T06:32:23;10.00;99.90
21861;DHT22;11095;48.066;8.540;2023-04-24T06:34:50;10.10;99.90
21861;DHT22;11095;48.066;8.540;2023-04-24T06:37:16;10.80;99.90
21861;DHT22;11095;48.066;8.540;2023-04-24T06:39:42;11.70;99.90
21861;DHT22;11095;48.066;8.540;2023-04-24T06:42:08;12.10;99.90
21861;DHT22;11095;48.066;8.540;2023-04-24T06:44:35;12.10;99.90
21861;DHT22;11095;48.066;8.540;2023-04-24T06:47:09;12.30;99.90
21861;DHT22;11095;48.066;8.540;2023-04-24T06:49:39;13.40;99.90
21861;DHT22;11095;48.066;8.540;2023-04-24T06:52:05;14.40;99.90
21861;DHT22;11095;48.066;8.540;2023-04-24T06:54:32;15.00;99.90
21861;DHT22;11095;48.066;8.540;2023-04-24T06:57:00;15.50;99.90
21861;DHT22;11095;48.066;8.540;2023-04-24T06:59:26;16.30;99.90
21861;DHT22;11095;48.066;8.540;2023-04-24T07:01:53;16.90;99.90
21861;DHT22;11095;48.066;8.540;2023-04-24T07:04:19;17.20;99.90
21861;DHT22;11095;48.066;8.540;2023-04-24T07:06:48;17.00;99.90
21861;DHT22;11095;48.066;8.540;2023-04-24T07:09:17;17.00;99.90
21861;DHT22;11095;48.066;8.540;2023-04-24T07:11:44;17.00;99.90
21861;DHT22;11095;48.066;8.540;2023-04-24T07:14:10;17.20;99.90
21861;DHT22;11095;48.066;8.540;2023-04-24T07:16:36;17.70;99.90
21861;DHT22;11095;48.066;8.540;2023-04-24T07:19:01;17.60;99.90
21861;DHT22;11095;48.066;8.540;2023-04-24T07:21:27;17.50;99.90
21861;DHT22;11095;48.066;8.540;2023-04-24T07:23:53;17.20;99.90
21861;DHT22;11095;48.066;8.540;2023-04-24T07:26:19;16.30;99.90
21861;DHT22;11095;48.066;8.540;2023-04-24T07:28:46;15.70;99.90
21861;DHT22;11095;48.066;8.540;2023-04-24T07:31:12;15.10;99.90
21861;DHT22;11095;48.066;8.540;2023-04-24T07:33:38;14.40;99.90
21861;DHT22;11095;48.066;8.540;2023-04-24T07:36:03;13.60;99.90
21861;DHT22;11095;48.066;8.540;2023-04-24T07:38:30;12.70;99.90
21861;DHT22;11095;48.066;8.540;2023-04-24T07:40:56;11.90;99.90
21861;DHT22;11095;48.066;8.540;2023-04-24T07:43:22;11.30;99.90
21861;DHT22;11095;48.066;8.540;2023-04-24T07:45:52;10.90;99.90
21861;DHT22;11095;48.066;8.540;2023-04-24T07:48:17;10.70;99.90
21861;DHT22;11095;48.066;8.540;2023-04-24T07:50:44;10.70;99.90
21861;DHT22;11095;48.066;8.540;2023-04-24T07:53:10;11.10;99.90
21861;DHT22;11095;48.066;8.540;2023-04-24T07:55:36;11.60;99.90
21861;DHT22;11095;48.066;8.540;2023-04-24T07:58:01;12.40;99.90
21861;DHT22;11095;48.066;8.540;2023-04-24T08:00:27;13.10;99.90
21861;DHT22;11095;48.066;8.540;2023-04-24T08:02:53;13.50;99.90
21861;DHT22;11095;48.066;8.540;2023-04-24T08:05:18;13.90;99.90
21861;DHT22;11095;48.066;8.540;2023-04-24T08:07:45;14.80;99.90
21861;DHT22;11095;48.066;8.540;2023-04-24T08:10:13;15.70;99.90
21861;DHT22;11095;48.066;8.540;2023-04-24T08:12:39;17.00;99.90
21861;DHT22;11095;48.066;8.540;2023-04-24T08:15:06;17.70;99.90
21861;DHT22;11095;48.066;8.540;2023-04-24T08:17:32;18.50;99.90
21861;DHT22;11095;48.066;8.540;2023-04-24T08:19:57;18.70;99.90
21861;DHT22;11095;48.066;8.540;2023-04-24T08:22:27;18.50;99.90
21861;DHT22;11095;48.066;8.540;2023-04-24T08:24:53;18.00;99.90
21861;DHT22;11095;48.066;8.540;2023-04-24T08:27:19;17.50;99.90
21861;DHT22;11095;48.066;8.540;2023-04-24T08:29:44;16.50;99.90
21861;DHT22;11095;48.066;8.540;2023-04-24T08:32:10;15.40;99.90
21861;DHT22;11095;48.066;8.540;2023-04-24T08:34:35;14.50;99.90
21861;DHT22;11095;48.066;8.540;2023-04-24T08:37:02;13.60;99.90
21861;DHT22;11095;48.066;8.540;2023-04-24T08:39:28;13.10;99.90
21861;DHT22;11095;48.066;8.540;2023-04-24T08:41:55;13.40;99.90
21861;DHT22;11095;48.066;8.540;2023-04-24T08:44:21;13.90;99.90
21861;DHT22;11095;48.066;8.540;2023-04-24T08:46:48;14.20;99.90
21861;DHT22;11095;48.066;8.540;2023-04-24T08:49:14;14.00;99.90
21861;DHT22;11095;48.066;8.540;2023-04-24T08:51:44;13.80;99.90
21861;DHT22;11095;48.066;8.540;2023-04-24T08:54:11;13.50;99.90
21861;DHT22;11095;48.066;8.540;2023-04-24T08:56:38;13.40;99.90
21861;DHT22;11095;48.066;8.540;2023-04-24T08:59:06;13.30;99.90
21861;DHT22;11095;48.066;8.540;2023-04-24T09:01:33;13.10;99.90
21861;DHT22;11095;48.066;8.540;2023-04-24T09:04:04;13.10;99.90
21861;DHT22;11095;48.066;8.540;2023-04-24T09:06:30;13.20;99.90
21861;DHT22;11095;48.066;8.540;2023-04-24T09:09:02;13.00;99.90
21861;DHT22;11095;48.066;8.540;2023-04-24T09:11:32;12.70;99.90
21861;DHT22;11095;48.066;8.540;2023-04-24T09:13:58;12.60;99.90
21861;DHT22;11095;48.066;8.540;2023-04-24T09:16:25;12.60;99.90
21861;DHT22;11095;48.066;8.540;2023-04-24T09:18:51;12.70;99.90
21861;DHT22;11095;48.066;8.540;2023-04-24T09:21:20;12.70;99.90
21861;DHT22;11095;48.066;8.540;2023-04-24T09:23:45;12.60;99.90
21861;DHT22;11095;48.066;8.540;2023-04-24T09:26:11;12.40;99.90
21861;DHT22;11095;48.066;8.540;2023-04-24T09:28:39;12.20;99.90
21861;DHT22;11095;48.066;8.540;2023-04-24T09:31:08;12.00;99.90
21861;DHT22;11095;48.066;8.540;2023-04-24T09:33:35;11.70;99.90
21861;DHT22;11095;48.066;8.540;2023-04-24T09:36:01;11.70;99.90
21861;DHT22;11095;48.066;8.540;2023-04-24T09:38:37;11.60;99.90
21861;DHT22;11095;48.066;8.540;2023-04-24T09:41:06;11.70;99.90
21861;DHT22;11095;48.066;8.540;2023-04-24T09:43:32;11.60;99.90
21861;DHT22;11095;48.066;8.540;2023-04-24T09:46:00;11.50;99.90
21861;DHT22;11095;48.066;8.540;2023-04-24T09:48:36;11.50;99.90
21861;DHT22;11095;48.066;8.540;2023-04-24T09:51:04;11.50;99.90
21861;DHT22;11095;48.066;8.540;2023-04-24T09:53:30;11.70;99.90
21861;DHT22;11095;48.066;8.540;2023-04-24T09:56:02;11.70;99.90
21861;DHT22;11095;48.066;8.540;2023-04-24T09:58:29;11.60;99.90
21861;DHT22;11095;48.066;8.540;2023-04-24T10:00:56;11.40;99.90
21861;DHT22;11095;48.066;8.540;2023-04-24T10:03:24;11.60;99.90
21861;DHT22;11095;48.066;8.540;2023-04-24T10:05:52;12.30;99.90
21861;DHT22;11095;48.066;8.540;2023-04-24T10:08:18;12.80;99.90
21861;DHT22;11095;48.066;8.540;2023-04-24T10:10:45;13.40;99.90
21861;DHT22;11095;48.066;8.540;2023-04-24T10:13:12;13.70;99.90
21861;DHT22;11095;48.066;8.540;2023-04-24T10:15:39;13.80;99.90
21861;DHT22;11095;48.066;8.540;2023-04-24T10:18:06;13.40;99.90
21861;DHT22;11095;48.066;8.540;2023-04-24T10:20:33;13.10;99.90
21861;DHT22;11095;48.066;8.540;2023-04-24T10:23:00;12.90;99.90
21861;DHT22;11095;48.066;8.540;2023-04-24T10:25:31;13.00;99.90
21861;DHT22;11095;48.066;8.540;2023-04-24T10:27:58;13.60;99.90
21861;DHT22;11095;48.066;8.540;2023-04-24T10:30:26;14.10;99.90
21861;DHT22;11095;48.066;8.540;2023-04-24T10:32:52;14.00;99.90
21861;DHT22;11095;48.066;8.540;2023-04-24T10:35:19;13.60;99.90
21861;DHT22;11095;48.066;8.540;2023-04-24T10:40:19;12.80;99.90
21861;DHT22;11095;48.066;8.540;2023-04-24T10:42:52;12.50;99.90
21861;DHT22;11095;48.066;8.540;2023-04-24T10:45:22;12.70;99.90
21861;DHT22;11095;48.066;8.540;2023-04-24T10:47:58;13.30;99.90
21861;DHT22;11095;48.066;8.540;2023-04-24T10:50:28;13.20;99.90
21861;DHT22;11095;48.066;8.540;2023-04-24T10:53:05;13.00;99.90
21861;DHT22;11095;48.066;8.540;2023-04-24T10:55:52;12.70;99.90
21861;DHT22;11095;48.066;8.540;2023-04-24T10:58:23;12.40;99.90
21861;DHT22;11095;48.066;8.540;2023-04-24T11:00:59;12.80;99.90
21861;DHT22;11095;48.066;8.540;2023-04-24T11:03:33;13.10;99.90
21861;DHT22;11095;48.066;8.540;2023-04-24T11:06:00;13.60;99.90
21861;DHT22;11095;48.066;8.540;2023-04-24T11:08:46;13.80;99.90
21861;DHT22;11095;48.066;8.540;2023-04-24T11:11:15;14.20;99.90
21861;DHT22;11095;48.066;8.540;2023-04-24T11:16:29;14.40;99.90
21861;DHT22;11095;48.066;8.540;2023-04-24T11:21:42;14.10;99.90
21861;DHT22;11095;48.066;8.540;2023-04-24T11:29:43;12.90;99.90
21861;DHT22;11095;48.066;8.540;2023-04-24T11:34:48;12.70;99.90
21861;DHT22;11095;48.066;8.540;2023-04-24T11:37:14;12.50;99.90
21861;DHT22;11095;48.066;8.540;2023-04-24T11:39:40;12.40;99.90
21861;DHT22;11095;48.066;8.540;2023-04-24T11:42:07;12.20;99.90
21861;DHT22;11095;48.066;8.540;2023-04-24T11:44:34;12.20;99.90
21861;DHT22;11095;48.066;8.540;2023-04-24T11:47:05;12.30;99.90
21861;DHT22;11095;48.066;8.540;2023-04-24T11:49:39;12.20;99.90
21861;DHT22;11095;48.066;8.540;2023-04-24T11:52:05;12.20;99.90
21861;DHT22;11095;48.066;8.540;2023-04-24T11:54:32;12.20;99.90
21861;DHT22;11095;48.066;8.540;2023-04-24T11:56:58;12.10;99.90
21861;DHT22;11095;48.066;8.540;2023-04-24T11:59:23;12.40;99.90
21861;DHT22;11095;48.066;8.540;2023-04-24T12:01:49;12.50;99.90
21861;DHT22;11095;48.066;8.540;2023-04-24T12:04:17;12.60;99.90
21861;DHT22;11095;48.066;8.540;2023-04-24T12:07:02;12.70;99.90
21861;DHT22;11095;48.066;8.540;2023-04-24T12:12:09;12.70;99.90
21861;DHT22;11095;48.066;8.540;2023-04-24T12:15:06;12.80;99.90
21861;DHT22;11095;48.066;8.540;2023-04-24T12:17:41;13.20;99.90
21861;DHT22;11095;48.066;8.540;2023-04-24T12:20:11;13.50;99.90
21861;DHT22;11095;48.066;8.540;2023-04-24T12:22:55;13.80;99.90
21861;DHT22;11095;48.066;8.540;2023-04-24T12:25:38;14.20;99.90
21861;DHT22;11095;48.066;8.540;2023-04-24T12:28:12;14.30;99.90
21861;DHT22;11095;48.066;8.540;2023-04-24T12:30:51;14.20;99.90
21861;DHT22;11095;48.066;8.540;2023-04-24T12:33:22;14.30;99.90
21861;DHT22;11095;48.066;8.540;2023-04-24T12:35:59;14.20;99.90
21861;DHT22;11095;48.066;8.540;2023-04-24T12:38:30;14.00;99.90
21861;DHT22;11095;48.066;8.540;2023-04-24T12:41:08;13.80;99.90
21861;DHT22;11095;48.066;8.540;2023-04-24T12:44:00;13.90;99.90
21861;DHT22;11095;48.066;8.540;2023-04-24T12:46:26;13.90;99.90
21861;DHT22;11095;48.066;8.540;2023-04-24T12:48:55;14.10;99.90
21861;DHT22;11095;48.066;8.540;2023-04-24T12:51:29;13.90;99.90
21861;DHT22;11095;48.066;8.540;2023-04-24T12:53:58;13.70;99.90
21861;DHT22;11095;48.066;8.540;2023-04-24T12:56:29;13.80;99.90
21861;DHT22;11095;48.066;8.540;2023-04-24T12:58:56;13.70;99.90
21861;DHT22;11095;48.066;8.540;2023-04-24T13:01:21;13.80;99.90
21861;DHT22;11095;48.066;8.540;2023-04-24T13:03:47;13.80;99.90
21861;DHT22;11095;48.066;8.540;2023-04-24T13:06:13;13.80;99.90
21861;DHT22;11095;48.066;8.540;2023-04-24T13:08:38;13.80;99.90
21861;DHT22;11095;48.066;8.540;2023-04-24T13:11:04;13.90;99.90
21861;DHT22;11095;48.066;8.540;2023-04-24T13:13:30;13.90;99.90
21861;DHT22;11095;48.066;8.540;2023-04-24T13:15:55;14.10;99.90
21861;DHT22;11095;48.066;8.540;2023-04-24T13:18:21;14.30;99.90
21861;DHT22;11095;48.066;8.540;2023-04-24T13:20:47;14.50;99.90
21861;DHT22;11095;48.066;8.540;2023-04-24T13:23:12;14.40;99.90
21861;DHT22;11095;48.066;8.540;2023-04-24T13:25:38;14.40;99.90
21861;DHT22;11095;48.066;8.540;2023-04-24T13:28:04;14.30;99.90
21861;DHT22;11095;48.066;8.540;2023-04-24T13:30:31;14.00;99.90
21861;DHT22;11095;48.066;8.540;2023-04-24T13:33:00;14.10;99.90
21861;DHT22;11095;48.066;8.540;2023-04-24T13:35:29;14.10;99.90
21861;DHT22;11095;48.066;8.540;2023-04-24T13:37:54;14.00;99.90
21861;DHT22;11095;48.066;8.540;2023-04-24T13:40:20;13.90;99.90
21861;DHT22;11095;48.066;8.540;2023-04-24T13:42:46;13.80;99.90
21861;DHT22;11095;48.066;8.540;2023-04-24T13:45:11;13.70;99.90
21861;DHT22;11095;48.066;8.540;2023-04-24T13:47:38;13.40;99.90
21861;DHT22;11095;48.066;8.540;2023-04-24T13:50:07;13.30;99.90
21861;DHT22;11095;48.066;8.540;2023-04-24T13:52:33;13.30;99.90
21861;DHT22;11095;48.066;8.540;2023-04-24T13:54:59;13.50;99.90
21861;DHT22;11095;48.066;8.540;2023-04-24T13:57:25;13.70;99.90
21861;DHT22;11095;48.066;8.540;2023-04-24T13:59:50;13.90;99.90
21861;DHT22;11095;48.066;8.540;2023-04-24T14:02:16;14.00;99.90
21861;DHT22;11095;48.066;8.540;2023-04-24T14:04:42;13.70;99.90
21861;DHT22;11095;48.066;8.540;2023-04-24T14:07:07;13.40;99.90
21861;DHT22;11095;48.066;8.540;2023-04-24T14:09:33;13.40;99.90
21861;DHT22;11095;48.066;8.540;2023-04-24T14:11:59;13.50;99.90
21861;DHT22;11095;48.066;8.540;2023-04-24T14:14:27;13.70;99.90
21861;DHT22;11095;48.066;8.540;2023-04-24T14:16:52;13.70;99.90
21861;DHT22;11095;48.066;8.540;2023-04-24T14:19:18;13.60;99.90
21861;DHT22;11095;48.066;8.540;2023-04-24T14:21:44;13.40;99.90
21861;DHT22;11095;48.066;8.540;2023-04-24T14:24:09;13.20;99.90
21861;DHT22;11095;48.066;8.540;2023-04-24T14:26:35;12.90;99.90
21861;DHT22;11095;48.066;8.540;2023-04-24T14:29:01;12.80;99.90
21861;DHT22;11095;48.066;8.540;2023-04-24T14:31:27;12.70;99.90
21861;DHT22;11095;48.066;8.540;2023-04-24T14:33:53;12.60;99.90
21861;DHT22;11095;48.066;8.540;2023-04-24T14:36:18;12.60;99.90
21861;DHT22;11095;48.066;8.540;2023-04-24T14:38:44;12.60;99.90
21861;DHT22;11095;48.066;8.540;2023-04-24T14:41:10;12.40;99.90
21861;DHT22;11095;48.066;8.540;2023-04-24T14:43:37;12.20;99.90
21861;DHT22;11095;48.066;8.540;2023-04-24T14:46:04;12.00;99.90
21861;DHT22;11095;48.066;8.540;2023-04-24T14:48:30;11.90;99.90
21861;DHT22;11095;48.066;8.540;2023-04-24T14:50:56;11.80;99.90
21861;DHT22;11095;48.066;8.540;2023-04-24T14:53:21;11.70;99.90
21861;DHT22;11095;48.066;8.540;2023-04-24T14:55:47;11.60;99.90
21861;DHT22;11095;48.066;8.540;2023-04-24T14:58:13;11.60;99.90
21861;DHT22;11095;48.066;8.540;2023-04-24T15:00:38;11.60;99.90
21861;DHT22;11095;48.066;8.540;2023-04-24T15:03:04;11.60;99.90
21861;DHT22;11095;48.066;8.540;2023-04-24T15:05:30;11.50;99.90
21861;DHT22;11095;48.066;8.540;2023-04-24T15:07:56;11.50;99.90
21861;DHT22;11095;48.066;8.540;2023-04-24T15:10:21;11.70;99.90
21861;DHT22;11095;48.066;8.540;2023-04-24T15:12:49;12.00;99.90
21861;DHT22;11095;48.066;8.540;2023-04-24T15:15:15;12.20;99.90
21861;DHT22;11095;48.066;8.540;2023-04-24T15:17:40;12.30;99.90
21861;DHT22;11095;48.066;8.540;2023-04-24T15:20:06;12.20;99.90
21861;DHT22;11095;48.066;8.540;2023-04-24T15:22:33;12.20;99.90
21861;DHT22;11095;48.066;8.540;2023-04-24T15:24:58;12.20;99.90
21861;DHT22;11095;48.066;8.540;2023-04-24T15:27:24;12.20;99.90
21861;DHT22;11095;48.066;8.540;2023-04-24T15:29:50;12.30;99.90
21861;DHT22;11095;48.066;8.540;2023-04-24T15:32:16;12.40;99.90
21861;DHT22;11095;48.066;8.540;2023-04-24T15:34:41;12.60;99.90
21861;DHT22;11095;48.066;8.540;2023-04-24T15:37:07;12.60;99.90
21861;DHT22;11095;48.066;8.540;2023-04-24T15:39:33;12.70;99.90
21861;DHT22;11095;48.066;8.540;2023-04-24T15:41:59;12.70;99.90
21861;DHT22;11095;48.066;8.540;2023-04-24T15:44:25;12.50;99.90
21861;DHT22;11095;48.066;8.540;2023-04-24T15:46:51;12.40;99.90
21861;DHT22;11095;48.066;8.540;2023-04-24T15:49:17;12.30;99.90
21861;DHT22;11095;48.066;8.540;2023-04-24T15:51:43;12.20;99.90
21861;DHT22;11095;48.066;8.540;2023-04-24T15:54:09;12.10;99.90